createdAt,value
2017-07-05T00:00:33.328Z,0
2017-07-05T00:01:33.983Z,0
2017-07-05T00:02:34.603Z,0
2017-07-05T00:03:35.220Z,0
2017-07-05T00:04:35.838Z,0
2017-07-05T00:05:36.456Z,0
2017-07-05T00:06:37.123Z,0
2017-07-05T00:07:37.743Z,0
2017-07-05T00:08:38.360Z,0
2017-07-05T00:09:39.037Z,0
2017-07-05T00:10:39.640Z,0
2017-07-05T00:11:40.307Z,0
2017-07-05T00:12:40.929Z,0
2017-07-05T00:13:41.544Z,0
2017-07-05T00:14:42.162Z,0
2017-07-05T00:15:42.778Z,0
2017-07-05T00:16:43.446Z,0
2017-07-05T00:17:44.067Z,0
2017-07-05T00:18:44.683Z,0
2017-07-05T00:19:45.302Z,0
2017-07-05T00:20:45.956Z,0
2017-07-05T00:21:46.624Z,0
2017-07-05T00:22:47.275Z,0
2017-07-05T00:23:47.893Z,0
2017-07-05T00:24:48.514Z,0
2017-07-05T00:25:49.130Z,0
2017-07-05T00:26:49.825Z,0
2017-07-05T00:27:50.430Z,0
2017-07-05T00:28:51.047Z,0
2017-07-05T00:29:51.665Z,0
2017-07-05T00:30:52.283Z,0
2017-07-05T00:31:52.982Z,0
2017-07-05T00:32:53.580Z,0
2017-07-05T00:33:54.198Z,0
2017-07-05T00:34:54.815Z,0
2017-07-05T00:35:55.433Z,0
2017-07-05T00:36:56.101Z,0
2017-07-05T00:37:56.718Z,0
2017-07-05T00:38:57.341Z,0
2017-07-05T00:39:57.955Z,0
2017-07-05T00:40:58.572Z,0
2017-07-05T00:41:59.239Z,0
2017-07-05T00:42:59.857Z,0
2017-07-05T00:44:00.501Z,0
2017-07-05T00:45:01.104Z,0
2017-07-05T00:46:01.729Z,0
2017-07-05T00:47:02.394Z,0
2017-07-05T00:48:03.050Z,0
2017-07-05T00:49:03.672Z,0
2017-07-05T00:50:04.283Z,0
2017-07-05T00:51:04.903Z,0
2017-07-05T00:52:05.573Z,0
2017-07-05T00:53:06.191Z,0
2017-07-05T00:54:06.809Z,0
2017-07-05T00:55:07.425Z,0
2017-07-05T00:56:08.042Z,0
2017-07-05T00:57:08.711Z,0
2017-07-05T00:58:09.328Z,0
2017-07-05T00:59:09.946Z,0
2017-07-05T01:00:10.564Z,0
2017-07-05T01:01:11.215Z,0
2017-07-05T01:02:11.886Z,0
2017-07-05T01:03:12.562Z,0
2017-07-05T01:04:13.166Z,0
2017-07-05T01:05:13.783Z,0
2017-07-05T01:06:14.400Z,0
2017-07-05T01:07:15.101Z,0
2017-07-05T01:08:15.749Z,0
2017-07-05T01:09:16.377Z,0
2017-07-05T01:10:16.981Z,0
2017-07-05T01:11:17.599Z,0
2017-07-05T01:12:18.294Z,0
2017-07-05T01:13:18.898Z,0
2017-07-05T01:14:19.516Z,0
2017-07-05T01:15:20.141Z,0
2017-07-05T01:16:20.755Z,0
2017-07-05T01:17:21.423Z,0
2017-07-05T01:18:22.039Z,0
2017-07-05T01:19:22.658Z,0
2017-07-05T01:20:23.281Z,0
2017-07-05T01:21:23.897Z,0
2017-07-05T01:22:24.562Z,0
2017-07-05T01:23:25.187Z,0
2017-07-05T01:24:25.803Z,0
2017-07-05T01:25:26.418Z,0
2017-07-05T01:26:27.036Z,0
2017-07-05T01:27:27.702Z,0
2017-07-05T01:28:28.353Z,0
2017-07-05T01:29:28.975Z,0
2017-07-05T01:30:29.591Z,0
2017-07-05T01:31:30.209Z,0
2017-07-05T01:32:30.910Z,0
2017-07-05T01:33:31.530Z,0
2017-07-05T01:34:32.146Z,0
2017-07-05T01:35:32.763Z,0
2017-07-05T01:36:33.387Z,0
2017-07-05T01:37:34.051Z,0
2017-07-05T01:38:34.669Z,0
2017-07-05T01:39:35.286Z,0
2017-07-05T01:40:35.902Z,0
2017-07-05T01:41:36.521Z,0
2017-07-05T01:42:37.215Z,0
2017-07-05T01:43:37.818Z,0
2017-07-05T01:44:38.437Z,0
2017-07-05T01:45:39.056Z,0
2017-07-05T01:46:39.672Z,0
2017-07-05T01:47:40.342Z,0
2017-07-05T01:48:40.973Z,0
2017-07-05T01:49:41.579Z,0
2017-07-05T01:50:42.195Z,0
2017-07-05T01:51:42.814Z,0
2017-07-05T01:52:43.511Z,0
2017-07-05T01:53:44.129Z,0
2017-07-05T01:54:44.759Z,0
2017-07-05T01:55:45.374Z,0
2017-07-05T01:56:45.995Z,0
2017-07-05T01:57:46.695Z,0
2017-07-05T01:58:47.312Z,0
2017-07-05T01:59:47.929Z,0
2017-07-05T02:00:48.545Z,0
2017-07-05T02:01:49.164Z,0
2017-07-05T02:02:49.833Z,0
2017-07-05T02:03:50.451Z,0
2017-07-05T02:04:51.068Z,0
2017-07-05T02:05:51.711Z,0
2017-07-05T02:06:52.364Z,0
2017-07-05T02:07:53.031Z,0
2017-07-05T02:08:53.654Z,0
2017-07-05T02:09:54.271Z,0
2017-07-05T02:10:54.885Z,0
2017-07-05T02:11:55.506Z,0
2017-07-05T02:12:56.172Z,0
2017-07-05T02:13:56.792Z,0
2017-07-05T02:14:57.449Z,0
2017-07-05T02:15:58.096Z,0
2017-07-05T02:16:58.716Z,0
2017-07-05T02:17:59.383Z,0
2017-07-05T02:19:00.000Z,0
2017-07-05T02:20:00.616Z,0
2017-07-05T02:21:01.240Z,0
2017-07-05T02:22:01.860Z,0
2017-07-05T02:23:02.524Z,0
2017-07-05T02:24:03.141Z,0
2017-07-05T02:25:03.756Z,0
2017-07-05T02:26:04.375Z,0
2017-07-05T02:27:05.024Z,0
2017-07-05T02:28:05.694Z,0
2017-07-05T02:29:06.311Z,0
2017-07-05T02:30:06.927Z,0
2017-07-05T02:31:07.544Z,0
2017-07-05T02:32:08.161Z,0
2017-07-05T02:33:08.829Z,0
2017-07-05T02:34:09.452Z,0
2017-07-05T02:35:10.066Z,0
2017-07-05T02:36:10.683Z,0
2017-07-05T02:37:11.300Z,0
2017-07-05T02:38:11.969Z,0
2017-07-05T02:39:12.590Z,0
2017-07-05T02:40:13.206Z,0
2017-07-05T02:41:13.822Z,0
2017-07-05T02:42:14.463Z,0
2017-07-05T02:43:15.117Z,0
2017-07-05T02:44:15.734Z,0
2017-07-05T02:45:16.350Z,0
2017-07-05T02:46:16.968Z,0
2017-07-05T02:47:17.592Z,0
2017-07-05T02:48:18.255Z,0
2017-07-05T02:49:18.873Z,0
2017-07-05T02:50:19.491Z,0
2017-07-05T02:51:20.107Z,0
2017-07-05T02:52:20.758Z,0
2017-07-05T02:53:21.424Z,0
2017-07-05T02:54:22.042Z,0
2017-07-05T02:55:22.660Z,0
2017-07-05T02:56:23.308Z,0
2017-07-05T02:57:23.925Z,0
2017-07-05T02:58:24.617Z,0
2017-07-05T02:59:25.222Z,0
2017-07-05T03:00:25.840Z,0
2017-07-05T03:01:26.457Z,0
2017-07-05T03:02:27.075Z,0
2017-07-05T03:03:27.741Z,0
2017-07-05T03:04:28.358Z,0
2017-07-05T03:05:28.976Z,0
2017-07-05T03:06:29.622Z,0
2017-07-05T03:07:30.226Z,0
2017-07-05T03:08:30.894Z,0
2017-07-05T03:09:31.513Z,0
2017-07-05T03:10:32.129Z,0
2017-07-05T03:11:32.745Z,0
2017-07-05T03:12:33.396Z,0
2017-07-05T03:13:34.065Z,0
2017-07-05T03:14:34.681Z,0
2017-07-05T03:15:35.301Z,0
2017-07-05T03:16:35.945Z,0
2017-07-05T03:17:36.552Z,0
2017-07-05T03:18:37.215Z,0
2017-07-05T03:19:37.833Z,0
2017-07-05T03:20:38.449Z,0
2017-07-05T03:21:39.066Z,0
2017-07-05T03:22:39.716Z,0
2017-07-05T03:23:40.390Z,0
2017-07-05T03:24:41.004Z,0
2017-07-05T03:25:41.622Z,0
2017-07-05T03:26:42.266Z,0
2017-07-05T03:27:42.904Z,0
2017-07-05T03:28:43.582Z,0
2017-07-05T03:29:44.185Z,0
2017-07-05T03:30:44.802Z,0
2017-07-05T03:31:45.419Z,4
2017-07-05T03:32:46.035Z,0
2017-07-05T03:33:46.703Z,4
2017-07-05T03:34:47.344Z,0
2017-07-05T03:35:47.950Z,4
2017-07-05T03:36:48.568Z,4
2017-07-05T03:37:49.225Z,0
2017-07-05T03:38:49.921Z,4
2017-07-05T03:39:50.521Z,4
2017-07-05T03:40:51.137Z,4
2017-07-05T03:41:51.757Z,4
2017-07-05T03:42:52.380Z,4
2017-07-05T03:43:52.994Z,4
2017-07-05T03:44:53.611Z,4
2017-07-05T03:45:54.234Z,8
2017-07-05T03:46:54.848Z,8
2017-07-05T03:47:55.467Z,8
2017-07-05T03:48:56.151Z,8
2017-07-05T03:49:56.750Z,4
2017-07-05T03:50:57.398Z,8
2017-07-05T03:51:58.014Z,8
2017-07-05T03:52:58.631Z,8
2017-07-05T03:53:59.300Z,12
2017-07-05T03:54:59.917Z,12
2017-07-05T03:56:00.538Z,12
2017-07-05T03:57:01.155Z,12
2017-07-05T03:58:01.773Z,12
2017-07-05T03:59:02.442Z,16
2017-07-05T04:00:03.059Z,16
2017-07-05T04:01:03.678Z,16
2017-07-05T04:02:04.296Z,12
2017-07-05T04:03:04.912Z,16
2017-07-05T04:04:05.582Z,16
2017-07-05T04:05:06.200Z,16
2017-07-05T04:06:06.848Z,20
2017-07-05T04:07:07.493Z,20
2017-07-05T04:08:08.131Z,20
2017-07-05T04:09:08.832Z,20
2017-07-05T04:10:09.451Z,20
2017-07-05T04:11:10.068Z,24
2017-07-05T04:12:10.745Z,24
2017-07-05T04:13:11.356Z,24
2017-07-05T04:14:12.026Z,24
2017-07-05T04:15:12.677Z,24
2017-07-05T04:16:13.303Z,20
2017-07-05T04:17:13.916Z,24
2017-07-05T04:18:14.563Z,24
2017-07-05T04:19:15.213Z,24
2017-07-05T04:20:15.837Z,24
2017-07-05T04:21:16.457Z,24
2017-07-05T04:22:17.079Z,28
2017-07-05T04:23:17.693Z,28
2017-07-05T04:24:18.393Z,32
2017-07-05T04:25:19.011Z,32
2017-07-05T04:26:19.665Z,32
2017-07-05T04:27:20.280Z,32
2017-07-05T04:28:20.903Z,28
2017-07-05T04:29:21.574Z,32
2017-07-05T04:30:22.188Z,32
2017-07-05T04:31:22.839Z,32
2017-07-05T04:32:23.491Z,36
2017-07-05T04:33:24.108Z,32
2017-07-05T04:34:24.774Z,32
2017-07-05T04:35:25.393Z,32
2017-07-05T04:36:26.035Z,36
2017-07-05T04:37:26.639Z,36
2017-07-05T04:38:27.323Z,36
2017-07-05T04:39:28.005Z,36
2017-07-05T04:40:28.608Z,40
2017-07-05T04:41:29.226Z,40
2017-07-05T04:42:29.875Z,40
2017-07-05T04:43:30.504Z,40
2017-07-05T04:44:31.190Z,40
2017-07-05T04:45:31.794Z,40
2017-07-05T04:46:32.412Z,40
2017-07-05T04:47:33.063Z,40
2017-07-05T04:48:33.664Z,40
2017-07-05T04:49:34.332Z,40
2017-07-05T04:50:34.985Z,40
2017-07-05T04:51:35.632Z,40
2017-07-05T04:52:36.251Z,44
2017-07-05T04:53:36.868Z,44
2017-07-05T04:54:37.539Z,40
2017-07-05T04:55:38.158Z,44
2017-07-05T04:56:38.785Z,44
2017-07-05T04:57:39.397Z,44
2017-07-05T04:58:40.015Z,44
2017-07-05T04:59:40.686Z,44
2017-07-05T05:00:41.305Z,44
2017-07-05T05:01:41.925Z,44
2017-07-05T05:02:42.538Z,48
2017-07-05T05:03:43.164Z,48
2017-07-05T05:04:43.828Z,48
2017-07-05T05:05:44.448Z,48
2017-07-05T05:06:45.073Z,48
2017-07-05T05:07:45.684Z,48
2017-07-05T05:08:46.303Z,48
2017-07-05T05:09:46.996Z,48
2017-07-05T05:10:47.602Z,48
2017-07-05T05:11:48.247Z,48
2017-07-05T05:12:48.883Z,48
2017-07-05T05:13:49.485Z,52
2017-07-05T05:14:50.155Z,52
2017-07-05T05:15:50.804Z,52
2017-07-05T05:16:51.419Z,52
2017-07-05T05:17:52.037Z,52
2017-07-05T05:18:52.687Z,52
2017-07-05T05:19:53.306Z,52
2017-07-05T05:20:53.925Z,52
2017-07-05T05:21:54.544Z,56
2017-07-05T05:22:55.186Z,56
2017-07-05T05:23:55.821Z,56
2017-07-05T05:24:56.477Z,56
2017-07-05T05:25:57.093Z,56
2017-07-05T05:26:57.713Z,56
2017-07-05T05:27:58.354Z,56
2017-07-05T05:28:59.004Z,56
2017-07-05T05:29:59.674Z,60
2017-07-05T05:31:00.295Z,60
2017-07-05T05:32:00.913Z,60
2017-07-05T05:33:01.529Z,60
2017-07-05T05:34:02.146Z,60
2017-07-05T05:35:02.817Z,60
2017-07-05T05:36:03.435Z,64
2017-07-05T05:37:04.052Z,64
2017-07-05T05:38:04.671Z,68
2017-07-05T05:39:05.292Z,68
2017-07-05T05:40:05.962Z,68
2017-07-05T05:41:06.579Z,68
2017-07-05T05:42:07.202Z,68
2017-07-05T05:43:07.821Z,68
2017-07-05T05:44:08.472Z,68
2017-07-05T05:45:09.141Z,68
2017-07-05T05:46:09.790Z,64
2017-07-05T05:47:10.409Z,68
2017-07-05T05:48:11.068Z,68
2017-07-05T05:49:11.677Z,68
2017-07-05T05:50:12.344Z,64
2017-07-05T05:51:12.964Z,68
2017-07-05T05:52:13.642Z,68
2017-07-05T05:53:14.317Z,68
2017-07-05T05:54:14.925Z,72
2017-07-05T05:55:15.629Z,68
2017-07-05T05:56:16.247Z,68
2017-07-05T05:57:16.890Z,68
2017-07-05T05:58:17.572Z,72
2017-07-05T05:59:18.250Z,72
2017-07-05T06:00:18.929Z,68
2017-07-05T06:01:19.536Z,68
2017-07-05T06:02:20.186Z,72
2017-07-05T06:03:20.794Z,68
2017-07-05T06:04:21.412Z,68
2017-07-05T06:05:22.080Z,72
2017-07-05T06:06:22.698Z,68
2017-07-05T06:07:23.316Z,68
2017-07-05T06:08:23.932Z,72
2017-07-05T06:09:24.552Z,68
2017-07-05T06:10:25.220Z,68
2017-07-05T06:11:25.838Z,72
2017-07-05T06:12:26.457Z,72
2017-07-05T06:13:27.100Z,72
2017-07-05T06:14:27.712Z,72
2017-07-05T06:15:28.383Z,76
2017-07-05T06:16:29.003Z,76
2017-07-05T06:17:29.626Z,76
2017-07-05T06:18:30.242Z,76
2017-07-05T06:19:30.866Z,72
2017-07-05T06:20:31.536Z,76
2017-07-05T06:21:32.194Z,76
2017-07-05T06:22:32.813Z,72
2017-07-05T06:23:33.430Z,72
2017-07-05T06:24:34.049Z,76
2017-07-05T06:25:34.722Z,80
2017-07-05T06:26:35.341Z,76
2017-07-05T06:27:35.961Z,76
2017-07-05T06:28:36.579Z,80
2017-07-05T06:29:37.207Z,80
2017-07-05T06:30:37.874Z,80
2017-07-05T06:31:38.520Z,84
2017-07-05T06:32:39.127Z,84
2017-07-05T06:33:39.949Z,80
2017-07-05T06:34:40.566Z,84
2017-07-05T06:35:41.263Z,84
2017-07-05T06:36:41.917Z,84
2017-07-05T06:37:42.535Z,88
2017-07-05T06:38:43.155Z,84
2017-07-05T06:39:43.808Z,84
2017-07-05T06:40:44.478Z,84
2017-07-05T06:41:45.104Z,84
2017-07-05T06:42:45.721Z,84
2017-07-05T06:43:46.341Z,84
2017-07-05T06:44:46.981Z,84
2017-07-05T06:45:47.632Z,84
2017-07-05T06:46:48.258Z,88
2017-07-05T06:47:48.875Z,88
2017-07-05T06:48:49.503Z,88
2017-07-05T06:49:50.124Z,88
2017-07-05T06:50:50.788Z,88
2017-07-05T06:51:51.409Z,88
2017-07-05T06:52:52.036Z,92
2017-07-05T06:53:52.653Z,88
2017-07-05T06:54:53.275Z,88
2017-07-05T06:55:53.943Z,92
2017-07-05T06:56:54.563Z,92
2017-07-05T06:57:55.186Z,92
2017-07-05T06:58:55.803Z,92
2017-07-05T06:59:56.455Z,92
2017-07-05T07:00:57.135Z,96
2017-07-05T07:01:57.744Z,96
2017-07-05T07:02:58.363Z,96
2017-07-05T07:03:58.984Z,100
2017-07-05T07:04:59.629Z,100
2017-07-05T07:06:00.288Z,100
2017-07-05T07:07:00.909Z,104
2017-07-05T07:08:01.531Z,100
2017-07-05T07:09:02.184Z,104
2017-07-05T07:10:02.838Z,104
2017-07-05T07:11:03.514Z,96
2017-07-05T07:12:04.163Z,100
2017-07-05T07:13:04.786Z,100
2017-07-05T07:14:05.406Z,104
2017-07-05T07:15:06.052Z,108
2017-07-05T07:16:06.712Z,112
2017-07-05T07:17:07.365Z,112
2017-07-05T07:18:08.018Z,116
2017-07-05T07:19:08.625Z,116
2017-07-05T07:20:09.449Z,112
2017-07-05T07:21:10.119Z,112
2017-07-05T07:22:10.745Z,112
2017-07-05T07:23:11.398Z,100
2017-07-05T07:24:12.079Z,100
2017-07-05T07:25:12.689Z,100
2017-07-05T07:26:13.360Z,88
2017-07-05T07:27:13.980Z,96
2017-07-05T07:28:14.603Z,112
2017-07-05T07:29:15.223Z,104
2017-07-05T07:30:15.846Z,120
2017-07-05T07:31:16.516Z,120
2017-07-05T07:32:17.137Z,120
2017-07-05T07:33:17.757Z,124
2017-07-05T07:34:18.380Z,124
2017-07-05T07:35:19.003Z,124
2017-07-05T07:36:19.677Z,124
2017-07-05T07:37:20.302Z,120
2017-07-05T07:38:20.959Z,128
2017-07-05T07:39:21.580Z,124
2017-07-05T07:40:22.203Z,124
2017-07-05T07:41:22.877Z,124
2017-07-05T07:42:23.496Z,132
2017-07-05T07:43:24.143Z,132
2017-07-05T07:44:24.779Z,136
2017-07-05T07:45:25.386Z,136
2017-07-05T07:46:26.060Z,132
2017-07-05T07:47:26.679Z,136
2017-07-05T07:48:27.300Z,140
2017-07-05T07:49:27.921Z,144
2017-07-05T07:50:28.542Z,144
2017-07-05T07:51:29.217Z,144
2017-07-05T07:52:29.842Z,148
2017-07-05T07:53:30.459Z,152
2017-07-05T07:54:31.082Z,152
2017-07-05T07:55:31.736Z,152
2017-07-05T07:56:32.391Z,152
2017-07-05T07:57:33.013Z,148
2017-07-05T07:58:33.634Z,152
2017-07-05T07:59:34.255Z,164
2017-07-05T08:00:34.877Z,156
2017-07-05T08:01:35.550Z,156
2017-07-05T08:02:36.174Z,168
2017-07-05T08:03:36.796Z,172
2017-07-05T08:04:37.451Z,176
2017-07-05T08:05:38.074Z,176
2017-07-05T08:06:38.781Z,176
2017-07-05T08:07:39.408Z,180
2017-07-05T08:08:40.032Z,180
2017-07-05T08:09:40.653Z,180
2017-07-05T08:10:41.275Z,180
2017-07-05T08:11:41.954Z,180
2017-07-05T08:12:42.574Z,180
2017-07-05T08:13:43.196Z,180
2017-07-05T08:14:43.819Z,184
2017-07-05T08:15:44.498Z,184
2017-07-05T08:16:45.159Z,184
2017-07-05T08:17:45.782Z,184
2017-07-05T08:18:46.407Z,188
2017-07-05T08:19:47.028Z,192
2017-07-05T08:20:47.682Z,188
2017-07-05T08:21:48.357Z,188
2017-07-05T08:22:48.979Z,196
2017-07-05T08:23:49.603Z,196
2017-07-05T08:24:50.226Z,196
2017-07-05T08:25:50.882Z,200
2017-07-05T08:26:51.555Z,200
2017-07-05T08:27:52.180Z,204
2017-07-05T08:28:52.803Z,204
2017-07-05T08:29:53.427Z,208
2017-07-05T08:30:54.076Z,208
2017-07-05T08:31:54.736Z,212
2017-07-05T08:32:55.359Z,208
2017-07-05T08:33:55.987Z,212
2017-07-05T08:34:56.604Z,212
2017-07-05T08:35:57.234Z,220
2017-07-05T08:36:57.906Z,224
2017-07-05T08:37:58.528Z,224
2017-07-05T08:38:59.153Z,224
2017-07-05T08:39:59.774Z,232
2017-07-05T08:41:00.397Z,236
2017-07-05T08:42:01.070Z,236
2017-07-05T08:43:01.693Z,240
2017-07-05T08:44:02.323Z,240
2017-07-05T08:45:02.943Z,244
2017-07-05T08:46:03.625Z,244
2017-07-05T08:47:04.285Z,252
2017-07-05T08:48:04.914Z,256
2017-07-05T08:49:05.532Z,256
2017-07-05T08:50:06.156Z,264
2017-07-05T08:51:06.778Z,264
2017-07-05T08:52:07.452Z,268
2017-07-05T08:53:08.075Z,272
2017-07-05T08:54:08.764Z,272
2017-07-05T08:55:09.370Z,280
2017-07-05T08:56:09.993Z,284
2017-07-05T08:57:10.673Z,284
2017-07-05T08:58:11.293Z,280
2017-07-05T08:59:11.917Z,296
2017-07-05T09:00:12.542Z,304
2017-07-05T09:01:13.166Z,308
2017-07-05T09:02:13.841Z,312
2017-07-05T09:03:14.465Z,316
2017-07-05T09:04:15.121Z,324
2017-07-05T09:05:15.752Z,328
2017-07-05T09:06:16.379Z,336
2017-07-05T09:07:17.048Z,348
2017-07-05T09:08:17.674Z,356
2017-07-05T09:09:18.299Z,368
2017-07-05T09:10:18.920Z,340
2017-07-05T09:11:19.547Z,376
2017-07-05T09:12:20.248Z,396
2017-07-05T09:13:20.936Z,404
2017-07-05T09:14:21.550Z,368
2017-07-05T09:15:22.170Z,332
2017-07-05T09:16:22.828Z,296
2017-07-05T09:17:23.508Z,288
2017-07-05T09:18:24.130Z,296
2017-07-05T09:19:24.787Z,268
2017-07-05T09:20:25.413Z,280
2017-07-05T09:21:26.070Z,264
2017-07-05T09:22:26.747Z,224
2017-07-05T09:23:27.370Z,280
2017-07-05T09:24:28.006Z,356
2017-07-05T09:25:28.623Z,384
2017-07-05T09:26:29.244Z,376
2017-07-05T09:27:29.942Z,408
2017-07-05T09:28:30.557Z,408
2017-07-05T09:29:31.178Z,412
2017-07-05T09:30:31.827Z,416
2017-07-05T09:31:32.425Z,420
2017-07-05T09:32:33.125Z,424
2017-07-05T09:33:33.736Z,424
2017-07-05T09:34:34.389Z,424
2017-07-05T09:35:34.999Z,392
2017-07-05T09:36:35.628Z,376
2017-07-05T09:37:36.300Z,360
2017-07-05T09:38:36.925Z,436
2017-07-05T09:39:37.581Z,436
2017-07-05T09:40:38.206Z,440
2017-07-05T09:41:38.831Z,444
2017-07-05T09:42:39.514Z,444
2017-07-05T09:43:40.153Z,448
2017-07-05T09:44:40.773Z,452
2017-07-05T09:45:41.405Z,456
2017-07-05T09:46:42.022Z,456
2017-07-05T09:47:42.697Z,460
2017-07-05T09:48:43.324Z,464
2017-07-05T09:49:43.945Z,472
2017-07-05T09:50:44.570Z,472
2017-07-05T09:51:45.202Z,480
2017-07-05T09:52:45.873Z,484
2017-07-05T09:53:46.497Z,488
2017-07-05T09:54:47.123Z,492
2017-07-05T09:55:47.749Z,496
2017-07-05T09:56:48.377Z,500
2017-07-05T09:57:49.053Z,504
2017-07-05T09:58:49.678Z,508
2017-07-05T09:59:50.328Z,508
2017-07-05T10:00:50.941Z,516
2017-07-05T10:01:51.565Z,516
2017-07-05T10:02:52.267Z,520
2017-07-05T10:03:52.916Z,524
2017-07-05T10:04:53.563Z,528
2017-07-05T10:05:54.189Z,532
2017-07-05T10:06:54.846Z,536
2017-07-05T10:07:55.536Z,540
2017-07-05T10:08:56.170Z,544
2017-07-05T10:09:56.783Z,556
2017-07-05T10:10:57.407Z,560
2017-07-05T10:11:58.036Z,564
2017-07-05T10:12:58.714Z,572
2017-07-05T10:13:59.341Z,572
2017-07-05T10:14:59.969Z,580
2017-07-05T10:16:00.590Z,564
2017-07-05T10:17:01.216Z,580
2017-07-05T10:18:01.897Z,588
2017-07-05T10:19:02.517Z,592
2017-07-05T10:20:03.150Z,596
2017-07-05T10:21:03.771Z,600
2017-07-05T10:22:04.430Z,604
2017-07-05T10:23:05.104Z,612
2017-07-05T10:24:05.730Z,616
2017-07-05T10:25:06.357Z,624
2017-07-05T10:26:07.007Z,628
2017-07-05T10:27:07.621Z,632
2017-07-05T10:28:08.297Z,636
2017-07-05T10:29:08.953Z,640
2017-07-05T10:30:09.564Z,648
2017-07-05T10:31:10.191Z,652
2017-07-05T10:32:10.814Z,656
2017-07-05T10:33:11.489Z,644
2017-07-05T10:34:12.120Z,664
2017-07-05T10:35:12.746Z,660
2017-07-05T10:36:13.373Z,672
2017-07-05T10:37:14.021Z,680
2017-07-05T10:38:14.710Z,680
2017-07-05T10:39:15.323Z,688
2017-07-05T10:40:15.982Z,688
2017-07-05T10:41:16.591Z,696
2017-07-05T10:42:17.221Z,696
2017-07-05T10:43:17.901Z,700
2017-07-05T10:44:18.525Z,700
2017-07-05T10:45:19.154Z,708
2017-07-05T10:46:19.781Z,712
2017-07-05T10:47:20.446Z,716
2017-07-05T10:48:21.117Z,724
2017-07-05T10:49:21.773Z,728
2017-07-05T10:50:22.396Z,728
2017-07-05T10:51:23.051Z,736
2017-07-05T10:52:23.651Z,744
2017-07-05T10:53:24.329Z,740
2017-07-05T10:54:24.959Z,748
2017-07-05T10:55:25.583Z,752
2017-07-05T10:56:26.207Z,752
2017-07-05T10:57:26.840Z,756
2017-07-05T10:58:27.512Z,764
2017-07-05T10:59:28.137Z,768
2017-07-05T11:00:28.763Z,776
2017-07-05T11:01:29.392Z,784
2017-07-05T11:02:30.045Z,784
2017-07-05T11:03:30.756Z,784
2017-07-05T11:04:31.383Z,792
2017-07-05T11:05:32.008Z,792
2017-07-05T11:06:32.637Z,796
2017-07-05T11:07:33.293Z,800
2017-07-05T11:08:33.952Z,808
2017-07-05T11:09:34.582Z,812
2017-07-05T11:10:35.209Z,812
2017-07-05T11:11:35.836Z,816
2017-07-05T11:12:36.493Z,824
2017-07-05T11:13:37.174Z,828
2017-07-05T11:14:37.798Z,828
2017-07-05T11:15:38.424Z,832
2017-07-05T11:16:39.049Z,832
2017-07-05T11:17:39.678Z,840
2017-07-05T11:18:40.354Z,840
2017-07-05T11:19:40.980Z,844
2017-07-05T11:20:41.611Z,848
2017-07-05T11:21:42.236Z,852
2017-07-05T11:22:42.862Z,852
2017-07-05T11:23:43.538Z,856
2017-07-05T11:24:44.166Z,864
2017-07-05T11:25:44.795Z,864
2017-07-05T11:26:45.454Z,852
2017-07-05T11:27:46.118Z,868
2017-07-05T11:28:46.798Z,876
2017-07-05T11:29:47.423Z,876
2017-07-05T11:30:48.049Z,880
2017-07-05T11:31:48.676Z,884
2017-07-05T11:32:49.336Z,888
2017-07-05T11:33:50.012Z,872
2017-07-05T11:34:50.640Z,904
2017-07-05T11:35:51.266Z,904
2017-07-05T11:36:51.898Z,904
2017-07-05T11:37:52.522Z,892
2017-07-05T11:38:53.199Z,900
2017-07-05T11:39:53.827Z,912
2017-07-05T11:40:54.453Z,920
2017-07-05T11:41:55.115Z,924
2017-07-05T11:42:55.743Z,928
2017-07-05T11:43:56.447Z,932
2017-07-05T11:44:57.060Z,932
2017-07-05T11:45:57.745Z,932
2017-07-05T11:46:58.360Z,936
2017-07-05T11:47:58.985Z,940
2017-07-05T11:48:59.661Z,948
2017-07-05T11:50:00.287Z,952
2017-07-05T11:51:00.914Z,952
2017-07-05T11:52:01.540Z,956
2017-07-05T11:53:02.168Z,960
2017-07-05T11:54:02.796Z,964
2017-07-05T11:55:03.421Z,968
2017-07-05T11:56:04.055Z,972
2017-07-05T11:57:04.729Z,972
2017-07-05T11:58:05.351Z,976
2017-07-05T11:59:06.025Z,980
2017-07-05T12:00:06.651Z,980
2017-07-05T12:01:07.285Z,988
2017-07-05T12:02:07.911Z,988
2017-07-05T12:03:08.538Z,988
2017-07-05T12:04:09.215Z,992
2017-07-05T12:05:09.876Z,996
2017-07-05T12:06:10.505Z,1000
2017-07-05T12:07:11.132Z,1004
2017-07-05T12:08:11.764Z,1012
2017-07-05T12:09:12.441Z,1016
2017-07-05T12:10:13.069Z,1020
2017-07-05T12:11:13.697Z,1020
2017-07-05T12:12:14.326Z,1032
2017-07-05T12:13:14.988Z,1032
2017-07-05T12:14:15.870Z,1028
2017-07-05T12:15:16.503Z,1028
2017-07-05T12:16:17.167Z,1028
2017-07-05T12:17:17.794Z,1040
2017-07-05T12:18:18.447Z,1056
2017-07-05T12:19:19.113Z,1052
2017-07-05T12:20:19.768Z,1040
2017-07-05T12:21:20.384Z,1052
2017-07-05T12:22:21.014Z,1052
2017-07-05T12:23:21.674Z,1056
2017-07-05T12:24:22.363Z,1060
2017-07-05T12:25:23.003Z,1068
2017-07-05T12:26:23.618Z,1064
2017-07-05T12:27:24.247Z,1056
2017-07-05T12:28:24.875Z,1072
2017-07-05T12:29:25.555Z,1072
2017-07-05T12:30:26.184Z,1068
2017-07-05T12:31:26.815Z,1072
2017-07-05T12:32:27.442Z,1080
2017-07-05T12:33:28.068Z,1080
2017-07-05T12:34:28.751Z,1080
2017-07-05T12:35:29.382Z,1068
2017-07-05T12:36:30.034Z,1064
2017-07-05T12:37:30.649Z,1064
2017-07-05T12:38:31.280Z,1072
2017-07-05T12:39:31.963Z,1068
2017-07-05T12:40:32.588Z,1076
2017-07-05T12:41:33.218Z,1068
2017-07-05T12:42:33.848Z,1092
2017-07-05T12:43:34.482Z,1096
2017-07-05T12:44:35.158Z,1104
2017-07-05T12:45:35.785Z,1096
2017-07-05T12:46:36.414Z,1084
2017-07-05T12:47:37.045Z,1108
2017-07-05T12:48:37.674Z,1096
2017-07-05T12:49:38.352Z,1084
2017-07-05T12:50:38.985Z,1104
2017-07-05T12:51:39.611Z,1104
2017-07-05T12:52:40.241Z,1116
2017-07-05T12:53:40.876Z,1112
2017-07-05T12:54:41.552Z,1124
2017-07-05T12:55:42.213Z,1112
2017-07-05T12:56:42.901Z,1060
2017-07-05T12:57:43.517Z,1048
2017-07-05T12:58:44.147Z,1104
2017-07-05T12:59:44.825Z,1116
2017-07-05T13:00:45.453Z,1096
2017-07-05T13:01:46.081Z,1072
2017-07-05T13:02:46.725Z,1100
2017-07-05T13:03:47.341Z,1112
2017-07-05T13:04:48.018Z,1100
2017-07-05T13:05:48.673Z,1128
2017-07-05T13:06:49.290Z,1116
2017-07-05T13:07:49.919Z,1080
2017-07-05T13:08:50.549Z,1068
2017-07-05T13:09:51.228Z,1132
2017-07-05T13:10:51.857Z,1120
2017-07-05T13:11:52.486Z,1096
2017-07-05T13:12:53.142Z,1088
2017-07-05T13:13:53.755Z,1084
2017-07-05T13:14:54.435Z,1072
2017-07-05T13:15:55.097Z,1052
2017-07-05T13:16:55.731Z,1084
2017-07-05T13:17:56.358Z,1088
2017-07-05T13:18:56.988Z,1080
2017-07-05T13:19:57.670Z,1088
2017-07-05T13:20:58.298Z,1092
2017-07-05T13:21:58.928Z,1116
2017-07-05T13:22:59.557Z,1128
2017-07-05T13:24:00.185Z,1144
2017-07-05T13:25:00.862Z,1144
2017-07-05T13:26:01.492Z,1144
2017-07-05T13:27:02.153Z,1044
2017-07-05T13:28:02.768Z,1072
2017-07-05T13:29:03.397Z,1084
2017-07-05T13:30:04.076Z,1140
2017-07-05T13:31:04.713Z,1056
2017-07-05T13:32:05.344Z,1104
2017-07-05T13:33:05.973Z,1128
2017-07-05T13:34:06.604Z,1132
2017-07-05T13:35:07.408Z,1120
2017-07-05T13:36:08.025Z,1116
2017-07-05T13:37:08.656Z,1072
2017-07-05T13:38:09.282Z,1080
2017-07-05T13:39:09.913Z,1084
2017-07-05T13:40:10.693Z,1108
2017-07-05T13:41:11.321Z,1084
2017-07-05T13:42:11.953Z,1128
2017-07-05T13:43:12.587Z,1128
2017-07-05T13:44:13.220Z,1104
2017-07-05T13:45:13.996Z,1088
2017-07-05T13:46:14.627Z,1104
2017-07-05T13:47:15.263Z,1120
2017-07-05T13:48:15.933Z,1068
2017-07-05T13:49:16.518Z,1076
2017-07-05T13:50:17.204Z,1080
2017-07-05T13:51:17.831Z,1072
2017-07-05T13:52:18.461Z,1092
2017-07-05T13:53:19.092Z,1072
2017-07-05T13:54:19.723Z,1032
2017-07-05T13:55:20.350Z,1072
2017-07-05T13:56:20.982Z,1088
2017-07-05T13:57:21.612Z,1080
2017-07-05T13:58:22.268Z,1108
2017-07-05T13:59:22.887Z,1112
2017-07-05T14:00:23.668Z,1116
2017-07-05T14:01:24.301Z,1104
2017-07-05T14:02:24.929Z,1092
2017-07-05T14:03:25.558Z,1104
2017-07-05T14:04:26.203Z,1108
2017-07-05T14:05:26.918Z,1116
2017-07-05T14:06:27.582Z,1112
2017-07-05T14:07:28.246Z,1096
2017-07-05T14:08:28.875Z,1108
2017-07-05T14:09:29.505Z,1108
2017-07-05T14:10:30.285Z,1104
2017-07-05T14:11:30.921Z,1108
2017-07-05T14:12:31.553Z,1100
2017-07-05T14:13:32.186Z,1096